sensor_id;sensor_type;location;lat;lon;timestamp;temperature;humidity
29321;DHT22;16323;51.130;6.612;2022-12-07T00:00:00;16.40;57.60
29321;DHT22;16323;51.130;6.612;2022-12-07T00:02:28;16.40;57.60
29321;DHT22;16323;51.130;6.612;2022-12-07T00:04:55;16.40;57.60
29321;DHT22;16323;51.130;6.612;2022-12-07T00:07:22;16.40;57.70
29321;DHT22;16323;51.130;6.612;2022-12-07T00:09:49;16.40;57.70
29321;DHT22;16323;51.130;6.612;2022-12-07T00:12:16;16.40;57.60
29321;DHT22;16323;51.130;6.612;2022-12-07T00:14:42;16.40;57.50
29321;DHT22;16323;51.130;6.612;2022-12-07T00:17:09;16.40;57.40
29321;DHT22;16323;51.130;6.612;2022-12-07T00:19:37;16.50;57.50
29321;DHT22;16323;51.130;6.612;2022-12-07T00:22:04;16.40;57.40
29321;DHT22;16323;51.130;6.612;2022-12-07T00:24:31;16.40;57.30
29321;DHT22;16323;51.130;6.612;2022-12-07T00:26:57;16.50;57.40
29321;DHT22;16323;51.130;6.612;2022-12-07T00:29:25;16.40;57.50
29321;DHT22;16323;51.130;6.612;2022-12-07T00:31:51;16.40;57.30
29321;DHT22;16323;51.130;6.612;2022-12-07T00:34:20;16.50;57.30
29321;DHT22;16323;51.130;6.612;2022-12-07T00:36:49;16.40;57.20
29321;DHT22;16323;51.130;6.612;2022-12-07T00:39:16;16.50;57.40
29321;DHT22;16323;51.130;6.612;2022-12-07T00:41:43;16.40;57.40
29321;DHT22;16323;51.130;6.612;2022-12-07T00:44:10;16.40;57.30
29321;DHT22;16323;51.130;6.612;2022-12-07T00:46:37;16.40;57.30
29321;DHT22;16323;51.130;6.612;2022-12-07T00:49:04;16.40;57.30
29321;DHT22;16323;51.130;6.612;2022-12-07T00:51:30;16.40;57.40
29321;DHT22;16323;51.130;6.612;2022-12-07T00:53:59;16.40;57.40
29321;DHT22;16323;51.130;6.612;2022-12-07T00:56:27;16.40;57.50
29321;DHT22;16323;51.130;6.612;2022-12-07T00:58:55;16.40;57.60
29321;DHT22;16323;51.130;6.612;2022-12-07T01:01:22;16.40;57.60
29321;DHT22;16323;51.130;6.612;2022-12-07T01:03:49;16.40;57.60
29321;DHT22;16323;51.130;6.612;2022-12-07T01:06:17;16.40;57.50
29321;DHT22;16323;51.130;6.612;2022-12-07T01:08:44;16.40;57.60
29321;DHT22;16323;51.130;6.612;2022-12-07T01:11:14;16.40;57.60
29321;DHT22;16323;51.130;6.612;2022-12-07T01:13:42;16.40;57.50
29321;DHT22;16323;51.130;6.612;2022-12-07T01:16:11;16.40;57.60
29321;DHT22;16323;51.130;6.612;2022-12-07T01:18:39;16.40;57.60
29321;DHT22;16323;51.130;6.612;2022-12-07T01:21:08;16.40;57.50
29321;DHT22;16323;51.130;6.612;2022-12-07T01:23:35;16.50;57.70
29321;DHT22;16323;51.130;6.612;2022-12-07T01:26:04;16.50;57.60
29321;DHT22;16323;51.130;6.612;2022-12-07T01:28:33;16.40;57.50
29321;DHT22;16323;51.130;6.612;2022-12-07T01:31:01;16.40;57.50
29321;DHT22;16323;51.130;6.612;2022-12-07T01:33:30;16.40;57.40
29321;DHT22;16323;51.130;6.612;2022-12-07T01:36:01;16.40;57.60
29321;DHT22;16323;51.130;6.612;2022-12-07T01:38:28;16.40;57.60
29321;DHT22;16323;51.130;6.612;2022-12-07T01:40:55;16.40;57.60
29321;DHT22;16323;51.130;6.612;2022-12-07T01:43:24;16.40;57.60
29321;DHT22;16323;51.130;6.612;2022-12-07T01:45:53;16.40;57.70
29321;DHT22;16323;51.130;6.612;2022-12-07T01:48:23;16.40;57.60
29321;DHT22;16323;51.130;6.612;2022-12-07T01:50:53;16.40;57.60
29321;DHT22;16323;51.130;6.612;2022-12-07T01:53:21;16.40;57.70
29321;DHT22;16323;51.130;6.612;2022-12-07T01:55:52;16.40;57.70
29321;DHT22;16323;51.130;6.612;2022-12-07T01:58:20;16.40;57.50
29321;DHT22;16323;51.130;6.612;2022-12-07T02:00:47;16.40;57.50
29321;DHT22;16323;51.130;6.612;2022-12-07T02:03:19;16.40;57.50
29321;DHT22;16323;51.130;6.612;2022-12-07T02:05:47;16.40;57.70
29321;DHT22;16323;51.130;6.612;2022-12-07T02:08:14;16.40;57.40
29321;DHT22;16323;51.130;6.612;2022-12-07T02:10:41;16.40;57.40
29321;DHT22;16323;51.130;6.612;2022-12-07T02:13:11;16.40;57.40
29321;DHT22;16323;51.130;6.612;2022-12-07T02:15:50;16.50;58.60
29321;DHT22;16323;51.130;6.612;2022-12-07T02:18:25;16.50;57.50
29321;DHT22;16323;51.130;6.612;2022-12-07T02:21:02;16.40;57.40
29321;DHT22;16323;51.130;6.612;2022-12-07T02:24:10;16.40;57.50
29321;DHT22;16323;51.130;6.612;2022-12-07T02:27:01;16.40;57.50
29321;DHT22;16323;51.130;6.612;2022-12-07T02:29:38;16.40;57.60
29321;DHT22;16323;51.130;6.612;2022-12-07T02:32:10;16.40;57.60
29321;DHT22;16323;51.130;6.612;2022-12-07T02:34:50;16.40;57.60
29321;DHT22;16323;51.130;6.612;2022-12-07T02:37:25;16.40;57.80
29321;DHT22;16323;51.130;6.612;2022-12-07T02:39:59;16.30;57.60
29321;DHT22;16323;51.130;6.612;2022-12-07T02:42:32;16.40;57.70
29321;DHT22;16323;51.130;6.612;2022-12-07T02:45:03;16.40;57.70
29321;DHT22;16323;51.130;6.612;2022-12-07T02:47:33;16.40;57.70
29321;DHT22;16323;51.130;6.612;2022-12-07T02:50:03;16.40;57.70
29321;DHT22;16323;51.130;6.612;2022-12-07T02:52:30;16.40;57.60
29321;DHT22;16323;51.130;6.612;2022-12-07T02:54:57;16.40;57.50
29321;DHT22;16323;51.130;6.612;2022-12-07T02:57:42;16.40;57.60
29321;DHT22;16323;51.130;6.612;2022-12-07T03:00:14;16.40;57.60
29321;DHT22;16323;51.130;6.612;2022-12-07T03:02:50;16.50;57.50
29321;DHT22;16323;51.130;6.612;2022-12-07T03:05:31;16.50;57.60
29321;DHT22;16323;51.130;6.612;2022-12-07T03:08:02;16.50;57.60
29321;DHT22;16323;51.130;6.612;2022-12-07T03:10:35;16.40;57.60
29321;DHT22;16323;51.130;6.612;2022-12-07T03:13:10;16.40;57.60
29321;DHT22;16323;51.130;6.612;2022-12-07T03:15:44;16.40;57.40
29321;DHT22;16323;51.130;6.612;2022-12-07T03:18:16;16.40;57.50
29321;DHT22;16323;51.130;6.612;2022-12-07T03:20:46;16.40;57.70
29321;DHT22;16323;51.130;6.612;2022-12-07T03:23:18;16.40;57.70
29321;DHT22;16323;51.130;6.612;2022-12-07T03:25:48;16.40;57.60
29321;DHT22;16323;51.130;6.612;2022-12-07T03:28:18;16.40;57.70
29321;DHT22;16323;51.130;6.612;2022-12-07T03:30:50;16.40;57.60
29321;DHT22;16323;51.130;6.612;2022-12-07T03:33:21;16.40;57.60
29321;DHT22;16323;51.130;6.612;2022-12-07T03:35:54;16.40;57.70
29321;DHT22;16323;51.130;6.612;2022-12-07T03:38:30;16.40;57.60
29321;DHT22;16323;51.130;6.612;2022-12-07T03:41:02;16.40;57.70
29321;DHT22;16323;51.130;6.612;2022-12-07T03:43:31;16.40;57.40
29321;DHT22;16323;51.130;6.612;2022-12-07T03:46:06;16.40;57.50
29321;DHT22;16323;51.130;6.612;2022-12-07T03:48:39;16.40;57.40
29321;DHT22;16323;51.130;6.612;2022-12-07T03:51:11;16.40;57.40
29321;DHT22;16323;51.130;6.612;2022-12-07T03:53:44;16.40;57.50
29321;DHT22;16323;51.130;6.612;2022-12-07T03:56:14;16.40;57.50
29321;DHT22;16323;51.130;6.612;2022-12-07T03:58:41;16.50;57.60
29321;DHT22;16323;51.130;6.612;2022-12-07T04:01:10;16.40;57.40
29321;DHT22;16323;51.130;6.612;2022-12-07T04:03:37;16.40;57.40
29321;DHT22;16323;51.130;6.612;2022-12-07T04:06:04;16.40;57.50
29321;DHT22;16323;51.130;6.612;2022-12-07T04:08:31;16.50;57.50
29321;DHT22;16323;51.130;6.612;2022-12-07T04:10:58;16.50;57.50
29321;DHT22;16323;51.130;6.612;2022-12-07T04:13:25;16.50;57.50
29321;DHT22;16323;51.130;6.612;2022-12-07T04:15:51;16.40;57.30
29321;DHT22;16323;51.130;6.612;2022-12-07T04:18:20;16.50;57.30
29321;DHT22;16323;51.130;6.612;2022-12-07T04:20:46;16.50;57.30
29321;DHT22;16323;51.130;6.612;2022-12-07T04:23:14;16.40;57.20
29321;DHT22;16323;51.130;6.612;2022-12-07T04:25:40;16.40;57.10
29321;DHT22;16323;51.130;6.612;2022-12-07T04:28:07;16.40;57.20
29321;DHT22;16323;51.130;6.612;2022-12-07T04:30:34;16.40;57.10
29321;DHT22;16323;51.130;6.612;2022-12-07T04:33:00;16.40;57.10
29321;DHT22;16323;51.130;6.612;2022-12-07T04:35:28;16.40;57.00
29321;DHT22;16323;51.130;6.612;2022-12-07T04:37:56;16.40;58.40
29321;DHT22;16323;51.130;6.612;2022-12-07T04:40:22;16.40;57.20
29321;DHT22;16323;51.130;6.612;2022-12-07T04:42:49;16.40;57.20
29321;DHT22;16323;51.130;6.612;2022-12-07T04:45:16;16.40;57.30
29321;DHT22;16323;51.130;6.612;2022-12-07T04:47:43;16.40;57.30
29321;DHT22;16323;51.130;6.612;2022-12-07T04:50:10;16.40;57.40
29321;DHT22;16323;51.130;6.612;2022-12-07T04:52:38;16.40;57.40
29321;DHT22;16323;51.130;6.612;2022-12-07T04:55:05;16.40;57.40
29321;DHT22;16323;51.130;6.612;2022-12-07T04:57:32;16.40;57.50
29321;DHT22;16323;51.130;6.612;2022-12-07T04:59:59;16.50;57.60
29321;DHT22;16323;51.130;6.612;2022-12-07T05:02:26;16.40;57.40
29321;DHT22;16323;51.130;6.612;2022-12-07T05:04:53;16.40;57.30
29321;DHT22;16323;51.130;6.612;2022-12-07T05:07:19;16.50;57.40
29321;DHT22;16323;51.130;6.612;2022-12-07T05:09:48;16.50;57.40
29321;DHT22;16323;51.130;6.612;2022-12-07T05:12:15;16.50;57.60
29321;DHT22;16323;51.130;6.612;2022-12-07T05:14:42;16.50;57.50
29321;DHT22;16323;51.130;6.612;2022-12-07T05:17:08;16.50;57.50
29321;DHT22;16323;51.130;6.612;2022-12-07T05:19:37;16.50;57.50
29321;DHT22;16323;51.130;6.612;2022-12-07T05:22:03;16.50;57.50
29321;DHT22;16323;51.130;6.612;2022-12-07T05:24:30;16.50;57.50
29321;DHT22;16323;51.130;6.612;2022-12-07T05:26:58;16.50;57.40
29321;DHT22;16323;51.130;6.612;2022-12-07T05:29:25;16.50;57.40
29321;DHT22;16323;51.130;6.612;2022-12-07T05:31:52;16.50;57.40
29321;DHT22;16323;51.130;6.612;2022-12-07T05:34:18;16.50;57.40
29321;DHT22;16323;51.130;6.612;2022-12-07T05:36:45;16.50;57.40
29321;DHT22;16323;51.130;6.612;2022-12-07T05:39:12;16.50;57.40
29321;DHT22;16323;51.130;6.612;2022-12-07T05:41:39;16.50;57.20
29321;DHT22;16323;51.130;6.612;2022-12-07T05:44:24;16.50;57.10
29321;DHT22;16323;51.130;6.612;2022-12-07T05:46:51;16.50;57.10
29321;DHT22;16323;51.130;6.612;2022-12-07T05:49:18;16.50;57.00
29321;DHT22;16323;51.130;6.612;2022-12-07T05:51:45;16.50;57.10
29321;DHT22;16323;51.130;6.612;2022-12-07T05:54:11;16.50;57.10
29321;DHT22;16323;51.130;6.612;2022-12-07T05:56:38;16.50;57.00
29321;DHT22;16323;51.130;6.612;2022-12-07T05:59:05;16.50;56.90
29321;DHT22;16323;51.130;6.612;2022-12-07T06:01:52;16.50;56.90
29321;DHT22;16323;51.130;6.612;2022-12-07T06:04:20;16.50;57.00
29321;DHT22;16323;51.130;6.612;2022-12-07T06:06:47;16.50;57.10
29321;DHT22;16323;51.130;6.612;2022-12-07T06:09:14;16.50;57.10
29321;DHT22;16323;51.130;6.612;2022-12-07T06:11:42;16.50;57.30
29321;DHT22;16323;51.130;6.612;2022-12-07T06:14:26;16.50;57.20
29321;DHT22;16323;51.130;6.612;2022-12-07T06:16:54;16.50;57.10
29321;DHT22;16323;51.130;6.612;2022-12-07T06:19:21;16.50;57.00
29321;DHT22;16323;51.130;6.612;2022-12-07T06:21:48;16.50;58.10
29321;DHT22;16323;51.130;6.612;2022-12-07T06:24:16;16.50;56.90
29321;DHT22;16323;51.130;6.612;2022-12-07T06:26:43;16.50;56.80
29321;DHT22;16323;51.130;6.612;2022-12-07T06:29:10;16.50;57.00
29321;DHT22;16323;51.130;6.612;2022-12-07T06:31:37;16.40;57.00
29321;DHT22;16323;51.130;6.612;2022-12-07T06:34:08;16.50;57.00
29321;DHT22;16323;51.130;6.612;2022-12-07T06:36:36;16.50;57.00
29321;DHT22;16323;51.130;6.612;2022-12-07T06:39:03;16.40;56.90
29321;DHT22;16323;51.130;6.612;2022-12-07T06:41:30;16.40;57.00
29321;DHT22;16323;51.130;6.612;2022-12-07T06:43:57;16.50;57.10
29321;DHT22;16323;51.130;6.612;2022-12-07T06:46:24;16.40;57.10
29321;DHT22;16323;51.130;6.612;2022-12-07T06:48:51;16.50;57.20
29321;DHT22;16323;51.130;6.612;2022-12-07T06:51:19;16.50;57.20
29321;DHT22;16323;51.130;6.612;2022-12-07T06:53:46;16.50;58.60
29321;DHT22;16323;51.130;6.612;2022-12-07T06:56:13;16.50;57.30
29321;DHT22;16323;51.130;6.612;2022-12-07T06:58:40;16.50;57.20
29321;DHT22;16323;51.130;6.612;2022-12-07T07:01:09;16.50;57.40
29321;DHT22;16323;51.130;6.612;2022-12-07T07:03:36;16.50;57.30
29321;DHT22;16323;51.130;6.612;2022-12-07T07:06:03;16.50;57.20
29321;DHT22;16323;51.130;6.612;2022-12-07T07:08:32;16.50;57.10
29321;DHT22;16323;51.130;6.612;2022-12-07T07:10:58;16.50;57.10
29321;DHT22;16323;51.130;6.612;2022-12-07T07:13:25;16.50;57.10
29321;DHT22;16323;51.130;6.612;2022-12-07T07:15:52;16.40;57.00
29321;DHT22;16323;51.130;6.612;2022-12-07T07:18:19;16.50;57.00
29321;DHT22;16323;51.130;6.612;2022-12-07T07:20:46;16.40;56.90
29321;DHT22;16323;51.130;6.612;2022-12-07T07:23:13;16.40;56.90
29321;DHT22;16323;51.130;6.612;2022-12-07T07:25:41;16.40;56.90
29321;DHT22;16323;51.130;6.612;2022-12-07T07:28:08;16.40;57.00
29321;DHT22;16323;51.130;6.612;2022-12-07T07:30:35;16.50;57.10
29321;DHT22;16323;51.130;6.612;2022-12-07T07:33:04;16.50;57.10
29321;DHT22;16323;51.130;6.612;2022-12-07T07:35:33;16.40;57.00
29321;DHT22;16323;51.130;6.612;2022-12-07T07:37:59;16.40;56.90
29321;DHT22;16323;51.130;6.612;2022-12-07T07:40:27;16.40;56.80
29321;DHT22;16323;51.130;6.612;2022-12-07T07:42:55;16.50;56.90
29321;DHT22;16323;51.130;6.612;2022-12-07T07:45:25;16.50;57.00
29321;DHT22;16323;51.130;6.612;2022-12-07T07:47:52;16.50;56.90
29321;DHT22;16323;51.130;6.612;2022-12-07T07:50:20;16.50;57.00
29321;DHT22;16323;51.130;6.612;2022-12-07T07:52:47;16.50;56.80
29321;DHT22;16323;51.130;6.612;2022-12-07T07:55:14;16.50;56.90
29321;DHT22;16323;51.130;6.612;2022-12-07T07:57:41;16.50;56.90
29321;DHT22;16323;51.130;6.612;2022-12-07T08:00:11;16.50;56.80
29321;DHT22;16323;51.130;6.612;2022-12-07T08:02:38;16.40;56.60
29321;DHT22;16323;51.130;6.612;2022-12-07T08:05:06;16.50;56.90
29321;DHT22;16323;51.130;6.612;2022-12-07T08:07:33;16.50;56.80
29321;DHT22;16323;51.130;6.612;2022-12-07T08:10:00;16.40;56.80
29321;DHT22;16323;51.130;6.612;2022-12-07T08:12:27;16.40;56.90
29321;DHT22;16323;51.130;6.612;2022-12-07T08:14:53;16.40;56.80
29321;DHT22;16323;51.130;6.612;2022-12-07T08:17:22;16.40;56.70
29321;DHT22;16323;51.130;6.612;2022-12-07T08:19:48;16.40;56.70
29321;DHT22;16323;51.130;6.612;2022-12-07T08:22:16;16.40;56.70
29321;DHT22;16323;51.130;6.612;2022-12-07T08:24:42;16.40;56.90
29321;DHT22;16323;51.130;6.612;2022-12-07T08:27:09;16.40;56.80
29321;DHT22;16323;51.130;6.612;2022-12-07T08:29:36;16.40;57.00
29321;DHT22;16323;51.130;6.612;2022-12-07T08:32:03;16.40;56.90
29321;DHT22;16323;51.130;6.612;2022-12-07T08:34:31;16.40;57.00
29321;DHT22;16323;51.130;6.612;2022-12-07T08:36:58;16.40;57.00
29321;DHT22;16323;51.130;6.612;2022-12-07T08:39:25;16.40;57.00
29321;DHT22;16323;51.130;6.612;2022-12-07T08:41:52;16.40;56.90
29321;DHT22;16323;51.130;6.612;2022-12-07T08:44:19;16.40;57.00
29321;DHT22;16323;51.130;6.612;2022-12-07T08:46:48;16.50;57.00
29321;DHT22;16323;51.130;6.612;2022-12-07T08:49:20;16.40;56.90
29321;DHT22;16323;51.130;6.612;2022-12-07T08:51:49;16.40;56.90
29321;DHT22;16323;51.130;6.612;2022-12-07T08:54:17;16.40;56.90
29321;DHT22;16323;51.130;6.612;2022-12-07T08:56:45;16.40;56.80
29321;DHT22;16323;51.130;6.612;2022-12-07T08:59:14;16.40;56.90
29321;DHT22;16323;51.130;6.612;2022-12-07T09:01:42;16.40;56.90
29321;DHT22;16323;51.130;6.612;2022-12-07T09:04:09;16.40;57.00
29321;DHT22;16323;51.130;6.612;2022-12-07T09:06:36;16.40;56.90
29321;DHT22;16323;51.130;6.612;2022-12-07T09:09:06;16.40;57.00
29321;DHT22;16323;51.130;6.612;2022-12-07T09:11:33;16.40;56.90
29321;DHT22;16323;51.130;6.612;2022-12-07T09:14:00;16.40;56.90
29321;DHT22;16323;51.130;6.612;2022-12-07T09:16:27;16.40;56.90
29321;DHT22;16323;51.130;6.612;2022-12-07T09:18:54;16.40;57.00
29321;DHT22;16323;51.130;6.612;2022-12-07T09:21:20;16.40;56.90
29321;DHT22;16323;51.130;6.612;2022-12-07T09:23:47;16.40;57.00
29321;DHT22;16323;51.130;6.612;2022-12-07T09:26:15;16.50;57.10
29321;DHT22;16323;51.130;6.612;2022-12-07T09:28:43;16.40;57.10
29321;DHT22;16323;51.130;6.612;2022-12-07T09:31:10;16.40;57.00
29321;DHT22;16323;51.130;6.612;2022-12-07T09:33:37;16.50;57.10
29321;DHT22;16323;51.130;6.612;2022-12-07T09:36:04;16.40;57.10
29321;DHT22;16323;51.130;6.612;2022-12-07T09:38:31;16.40;57.00
29321;DHT22;16323;51.130;6.612;2022-12-07T09:41:04;16.40;57.00
29321;DHT22;16323;51.130;6.612;2022-12-07T09:43:32;16.40;57.00
29321;DHT22;16323;51.130;6.612;2022-12-07T09:46:00;16.40;56.90
29321;DHT22;16323;51.130;6.612;2022-12-07T09:48:30;16.40;57.00
29321;DHT22;16323;51.130;6.612;2022-12-07T09:51:00;16.40;57.00
29321;DHT22;16323;51.130;6.612;2022-12-07T09:53:29;16.40;56.90
29321;DHT22;16323;51.130;6.612;2022-12-07T09:55:57;16.40;56.90
29321;DHT22;16323;51.130;6.612;2022-12-07T09:58:25;16.40;56.90
29321;DHT22;16323;51.130;6.612;2022-12-07T10:00:56;16.40;56.90
29321;DHT22;16323;51.130;6.612;2022-12-07T10:03:25;16.40;56.90
29321;DHT22;16323;51.130;6.612;2022-12-07T10:05:53;16.40;56.90
29321;DHT22;16323;51.130;6.612;2022-12-07T10:08:19;16.40;57.00
29321;DHT22;16323;51.130;6.612;2022-12-07T10:10:50;16.40;57.00
29321;DHT22;16323;51.130;6.612;2022-12-07T10:13:19;16.40;57.10
29321;DHT22;16323;51.130;6.612;2022-12-07T10:15:49;16.40;57.10
29321;DHT22;16323;51.130;6.612;2022-12-07T10:18:37;16.40;57.00
29321;DHT22;16323;51.130;6.612;2022-12-07T10:21:12;16.40;57.00
29321;DHT22;16323;51.130;6.612;2022-12-07T10:23:41;16.40;57.10
29321;DHT22;16323;51.130;6.612;2022-12-07T10:26:27;16.40;57.00
29321;DHT22;16323;51.130;6.612;2022-12-07T10:28:56;16.40;57.00
29321;DHT22;16323;51.130;6.612;2022-12-07T10:31:25;16.50;57.10
29321;DHT22;16323;51.130;6.612;2022-12-07T10:33:54;16.50;57.00
29321;DHT22;16323;51.130;6.612;2022-12-07T10:36:24;16.40;56.90
29321;DHT22;16323;51.130;6.612;2022-12-07T10:38:53;16.40;56.80
29321;DHT22;16323;51.130;6.612;2022-12-07T10:41:20;16.40;57.30
29321;DHT22;16323;51.130;6.612;2022-12-07T10:43:52;16.40;57.00
29321;DHT22;16323;51.130;6.612;2022-12-07T10:52:29;16.40;57.00
29321;DHT22;16323;51.130;6.612;2022-12-07T10:55:12;16.40;57.20
29321;DHT22;16323;51.130;6.612;2022-12-07T10:57:53;16.40;57.20
29321;DHT22;16323;51.130;6.612;2022-12-07T11:00:24;16.40;57.10
29321;DHT22;16323;51.130;6.612;2022-12-07T11:03:17;16.40;57.10
29321;DHT22;16323;51.130;6.612;2022-12-07T11:05:56;16.40;57.10
29321;DHT22;16323;51.130;6.612;2022-12-07T11:08:44;16.40;57.10
29321;DHT22;16323;51.130;6.612;2022-12-07T11:11:15;16.40;57.00
29321;DHT22;16323;51.130;6.612;2022-12-07T11:13:50;16.40;57.10
29321;DHT22;16323;51.130;6.612;2022-12-07T11:16:24;16.40;57.10
29321;DHT22;16323;51.130;6.612;2022-12-07T11:19:04;16.50;57.00
29321;DHT22;16323;51.130;6.612;2022-12-07T11:21:40;16.50;57.00
29321;DHT22;16323;51.130;6.612;2022-12-07T11:24:14;16.40;57.00
29321;DHT22;16323;51.130;6.612;2022-12-07T11:26:52;16.50;57.00
29321;DHT22;16323;51.130;6.612;2022-12-07T11:29:45;16.40;57.00
29321;DHT22;16323;51.130;6.612;2022-12-07T11:32:19;16.50;57.00
29321;DHT22;16323;51.130;6.612;2022-12-07T11:34:55;16.50;57.00
29321;DHT22;16323;51.130;6.612;2022-12-07T11:37:30;16.40;57.00
29321;DHT22;16323;51.130;6.612;2022-12-07T11:40:00;16.50;57.00
29321;DHT22;16323;51.130;6.612;2022-12-07T11:42:31;16.40;57.00
29321;DHT22;16323;51.130;6.612;2022-12-07T11:45:03;16.40;56.90
29321;DHT22;16323;51.130;6.612;2022-12-07T11:47:43;16.40;57.00
29321;DHT22;16323;51.130;6.612;2022-12-07T11:50:27;16.40;57.00
29321;DHT22;16323;51.130;6.612;2022-12-07T11:53:01;16.40;57.10
29321;DHT22;16323;51.130;6.612;2022-12-07T11:55:40;16.40;57.20
29321;DHT22;16323;51.130;6.612;2022-12-07T11:58:18;16.40;57.10
29321;DHT22;16323;51.130;6.612;2022-12-07T12:00:48;16.50;57.30
29321;DHT22;16323;51.130;6.612;2022-12-07T12:03:21;16.40;57.10
29321;DHT22;16323;51.130;6.612;2022-12-07T12:05:49;16.50;57.10
29321;DHT22;16323;51.130;6.612;2022-12-07T12:08:21;16.50;57.10
29321;DHT22;16323;51.130;6.612;2022-12-07T12:10:55;16.50;57.20
29321;DHT22;16323;51.130;6.612;2022-12-07T12:19:21;16.50;57.00
29321;DHT22;16323;51.130;6.612;2022-12-07T12:21:52;16.50;56.90
29321;DHT22;16323;51.130;6.612;2022-12-07T12:24:24;16.50;57.00
29321;DHT22;16323;51.130;6.612;2022-12-07T12:26:54;16.50;56.90
29321;DHT22;16323;51.130;6.612;2022-12-07T12:29:28;16.50;56.90
29321;DHT22;16323;51.130;6.612;2022-12-07T12:32:13;16.40;56.80
29321;DHT22;16323;51.130;6.612;2022-12-07T12:34:57;16.40;56.80
29321;DHT22;16323;51.130;6.612;2022-12-07T12:37:42;16.40;56.90
29321;DHT22;16323;51.130;6.612;2022-12-07T12:40:39;16.40;56.80
29321;DHT22;16323;51.130;6.612;2022-12-07T12:43:39;16.40;56.80
29321;DHT22;16323;51.130;6.612;2022-12-07T12:46:36;16.40;56.80
29321;DHT22;16323;51.130;6.612;2022-12-07T12:49:30;16.40;56.90
29321;DHT22;16323;51.130;6.612;2022-12-07T12:52:00;16.50;56.80
29321;DHT22;16323;51.130;6.612;2022-12-07T12:54:30;16.50;57.00
29321;DHT22;16323;51.130;6.612;2022-12-07T12:57:04;16.50;56.90
29321;DHT22;16323;51.130;6.612;2022-12-07T12:59:33;16.50;56.70
29321;DHT22;16323;51.130;6.612;2022-12-07T13:02:16;16.50;56.70
29321;DHT22;16323;51.130;6.612;2022-12-07T13:04:53;16.50;56.70
29321;DHT22;16323;51.130;6.612;2022-12-07T13:07:52;16.50;56.80
29321;DHT22;16323;51.130;6.612;2022-12-07T13:10:40;16.50;56.80
29321;DHT22;16323;51.130;6.612;2022-12-07T13:13:33;16.50;56.90
29321;DHT22;16323;51.130;6.612;2022-12-07T13:16:36;16.50;57.00
29321;DHT22;16323;51.130;6.612;2022-12-07T13:22:50;16.50;56.80
29321;DHT22;16323;51.130;6.612;2022-12-07T13:25:21;16.40;56.80
29321;DHT22;16323;51.130;6.612;2022-12-07T13:27:55;16.50;57.00
29321;DHT22;16323;51.130;6.612;2022-12-07T13:30:24;16.40;57.40
29321;DHT22;16323;51.130;6.612;2022-12-07T13:32:53;16.40;56.90
29321;DHT22;16323;51.130;6.612;2022-12-07T13:35:31;16.40;56.90
29321;DHT22;16323;51.130;6.612;2022-12-07T13:37:59;16.40;57.10
29321;DHT22;16323;51.130;6.612;2022-12-07T13:40:27;16.50;57.30
29321;DHT22;16323;51.130;6.612;2022-12-07T13:42:58;16.50;57.30
29321;DHT22;16323;51.130;6.612;2022-12-07T13:45:29;16.50;57.30
29321;DHT22;16323;51.130;6.612;2022-12-07T13:48:20;16.50;57.20
29321;DHT22;16323;51.130;6.612;2022-12-07T13:50:53;16.50;57.30
29321;DHT22;16323;51.130;6.612;2022-12-07T13:53:20;16.50;57.20
29321;DHT22;16323;51.130;6.612;2022-12-07T13:55:47;16.50;57.10
29321;DHT22;16323;51.130;6.612;2022-12-07T13:58:14;16.50;57.10
29321;DHT22;16323;51.130;6.612;2022-12-07T14:00:43;16.60;57.10
29321;DHT22;16323;51.130;6.612;2022-12-07T14:03:27;16.50;57.10
29321;DHT22;16323;51.130;6.612;2022-12-07T14:06:15;16.50;57.10
29321;DHT22;16323;51.130;6.612;2022-12-07T14:08:42;16.50;58.30
29321;DHT22;16323;51.130;6.612;2022-12-07T14:11:14;16.50;57.10
29321;DHT22;16323;51.130;6.612;2022-12-07T14:13:50;16.50;57.10
29321;DHT22;16323;51.130;6.612;2022-12-07T14:16:23;16.50;57.20
29321;DHT22;16323;51.130;6.612;2022-12-07T14:18:51;16.50;57.30
29321;DHT22;16323;51.130;6.612;2022-12-07T14:21:21;16.50;57.30
29321;DHT22;16323;51.130;6.612;2022-12-07T14:24:11;16.50;57.30
29321;DHT22;16323;51.130;6.612;2022-12-07T14:26:38;16.50;57.40
29321;DHT22;16323;51.130;6.612;2022-12-07T14:29:30;16.50;57.20
29321;DHT22;16323;51.130;6.612;2022-12-07T14:32:17;16.50;57.10
29321;DHT22;16323;51.130;6.612;2022-12-07T14:35:00;16.50;57.00
29321;DHT22;16323;51.130;6.612;2022-12-07T14:37:28;16.50;56.90
29321;DHT22;16323;51.130;6.612;2022-12-07T14:39:55;16.50;56.70
29321;DHT22;16323;51.130;6.612;2022-12-07T14:42:25;16.50;56.70
29321;DHT22;16323;51.130;6.612;2022-12-07T14:44:53;16.50;56.70
29321;DHT22;16323;51.130;6.612;2022-12-07T14:47:22;16.50;56.60
29321;DHT22;16323;51.130;6.612;2022-12-07T14:49:48;16.50;56.70
29321;DHT22;16323;51.130;6.612;2022-12-07T14:52:18;16.50;56.80
29321;DHT22;16323;51.130;6.612;2022-12-07T14:54:45;16.50;56.60
29321;DHT22;16323;51.130;6.612;2022-12-07T14:57:12;16.50;56.40
29321;DHT22;16323;51.130;6.612;2022-12-07T14:59:39;16.50;56.40
29321;DHT22;16323;51.130;6.612;2022-12-07T15:02:08;16.50;56.40
29321;DHT22;16323;51.130;6.612;2022-12-07T15:04:37;16.50;56.40
29321;DHT22;16323;51.130;6.612;2022-12-07T15:07:05;16.50;56.40
29321;DHT22;16323;51.130;6.612;2022-12-07T15:09:32;16.50;56.30
29321;DHT22;16323;51.130;6.612;2022-12-07T15:11:59;16.50;56.30
29321;DHT22;16323;51.130;6.612;2022-12-07T15:14:25;16.50;56.30
29321;DHT22;16323;51.130;6.612;2022-12-07T15:16:52;16.50;56.60
29321;DHT22;16323;51.130;6.612;2022-12-07T15:19:20;16.50;56.40
29321;DHT22;16323;51.130;6.612;2022-12-07T15:21:52;16.50;56.60
29321;DHT22;16323;51.130;6.612;2022-12-07T15:24:20;16.40;56.40
29321;DHT22;16323;51.130;6.612;2022-12-07T15:26:49;16.50;57.70
29321;DHT22;16323;51.130;6.612;2022-12-07T15:29:15;16.50;56.60
29321;DHT22;16323;51.130;6.612;2022-12-07T15:31:42;16.50;56.50
29321;DHT22;16323;51.130;6.612;2022-12-07T15:34:10;16.50;56.60
29321;DHT22;16323;51.130;6.612;2022-12-07T15:36:37;16.50;56.60
29321;DHT22;16323;51.130;6.612;2022-12-07T15:39:05;16.50;56.40
29321;DHT22;16323;51.130;6.612;2022-12-07T15:41:32;16.50;56.50
29321;DHT22;16323;51.130;6.612;2022-12-07T15:43:59;16.50;56.40
29321;DHT22;16323;51.130;6.612;2022-12-07T15:46:52;16.50;56.40
29321;DHT22;16323;51.130;6.612;2022-12-07T15:49:19;16.50;56.20
29321;DHT22;16323;51.130;6.612;2022-12-07T15:51:46;16.50;56.20
29321;DHT22;16323;51.130;6.612;2022-12-07T15:54:18;16.50;56.20
29321;DHT22;16323;51.130;6.612;2022-12-07T15:56:45;16.50;56.20
29321;DHT22;16323;51.130;6.612;2022-12-07T15:59:12;16.50;56.20
29321;DHT22;16323;51.130;6.612;2022-12-07T16:01:39;16.50;56.30
29321;DHT22;16323;51.130;6.612;2022-12-07T16:04:06;16.50;56.40
29321;DHT22;16323;51.130;6.612;2022-12-07T16:06:32;16.50;56.30